createdAt,value
2023-08-04T00:04:25.802Z,99717.53
2023-08-04T00:09:27.393Z,99725.16
2023-08-04T00:14:29.050Z,99730.22
2023-08-04T00:19:30.658Z,99724.53
2023-08-04T00:24:32.261Z,99723.47
2023-08-04T00:29:33.907Z,99717.72
2023-08-04T00:34:35.519Z,99723.78
2023-08-04T00:39:37.102Z,99727.66
2023-08-04T00:44:38.738Z,99724.13
2023-08-04T00:49:41.547Z,99713.38
2023-08-04T00:54:45.101Z,99715.84
2023-08-04T00:59:46.761Z,99715.88
2023-08-04T01:04:48.466Z,99710.94
2023-08-04T01:10:04.958Z,99717.00
2023-08-04T01:15:08.024Z,99707.94
2023-08-04T01:20:10.213Z,99715.94
2023-08-04T01:25:11.916Z,99712.66
2023-08-04T01:30:19.378Z,99709.13
2023-08-04T01:35:21.263Z,99703.59
2023-08-04T01:40:22.997Z,99707.72
2023-08-04T01:45:24.607Z,99701.88
2023-08-04T01:50:26.258Z,99714.28
2023-08-04T01:55:27.866Z,99708.78
2023-08-04T02:00:29.493Z,99709.34
2023-08-04T02:05:31.058Z,99699.41
2023-08-04T02:10:35.073Z,99699.97
2023-08-04T02:15:36.674Z,99712.09
2023-08-04T02:20:38.292Z,99707.66
2023-08-04T02:25:39.874Z,99709.88
2023-08-04T02:30:41.539Z,99720.63
2023-08-04T02:35:43.179Z,99727.56
2023-08-04T02:40:44.975Z,99738.63
2023-08-04T02:45:52.147Z,99724.84
2023-08-04T02:51:04.049Z,99733.41
2023-08-04T02:56:13.561Z,99723.19
2023-08-04T03:01:15.935Z,99727.59
2023-08-04T03:06:17.618Z,99728.69
2023-08-04T03:11:19.197Z,99731.16
2023-08-04T03:16:20.842Z,99725.66
2023-08-04T03:21:22.418Z,99724.78
2023-08-04T03:26:24.053Z,99735.28
2023-08-04T03:31:25.810Z,99738.06
2023-08-04T03:36:27.466Z,99744.69
2023-08-04T03:41:29.821Z,99738.63
2023-08-04T03:46:31.478Z,99750.75
2023-08-04T03:51:33.097Z,99750.75
2023-08-04T03:56:34.727Z,99759.81
2023-08-04T04:01:36.394Z,99770.25
2023-08-04T04:06:38.154Z,99768.53
2023-08-04T04:11:39.730Z,99772.94
2023-08-04T04:16:41.345Z,99772.13
2023-08-04T04:21:43.586Z,99769.38
2023-08-04T04:26:45.192Z,99775.44
2023-08-04T04:31:47.009Z,99772.94
2023-08-04T04:36:48.737Z,99771.31
2023-08-04T04:41:50.389Z,99780.66
2023-08-04T04:46:52.210Z,99780.69
2023-08-04T04:51:53.851Z,99782.66
2023-08-04T04:56:55.539Z,99790.09
2023-08-04T05:01:57.225Z,99796.75
2023-08-04T05:06:58.878Z,99790.94
2023-08-04T05:12:00.472Z,99801.44
2023-08-04T05:17:02.103Z,99811.44
2023-08-04T05:22:03.851Z,99815.84
2023-08-04T05:27:06.150Z,99809.28
2023-08-04T05:32:08.088Z,99809.00
2023-08-04T05:37:09.777Z,99810.41
2023-08-04T05:42:11.383Z,99820.63
2023-08-04T05:47:13.272Z,99819.53
2023-08-04T05:52:14.959Z,99820.63
2023-08-04T05:57:24.332Z,99823.97
2023-08-04T06:02:25.955Z,99827.25
2023-08-04T06:07:27.605Z,99830.81
2023-08-04T06:12:30.801Z,99831.25
2023-08-04T06:17:34.180Z,99833.38
2023-08-04T06:22:36.701Z,99826.34
2023-08-04T06:27:38.401Z,99827.38
2023-08-04T06:32:42.548Z,99833.53
2023-08-04T06:37:44.225Z,99824.81
2023-08-04T06:42:45.976Z,99830.47
2023-08-04T06:47:47.811Z,99827.16
2023-08-04T06:52:49.398Z,99824.28
2023-08-04T06:57:52.236Z,99828.28
2023-08-04T07:02:53.941Z,99840.94
2023-08-04T07:07:55.909Z,99832.31
2023-08-04T07:12:57.740Z,99827.28
2023-08-04T07:17:59.399Z,99829.56
2023-08-04T07:23:01.020Z,99832.75
2023-08-04T07:28:02.654Z,99844.81
2023-08-04T07:33:08.014Z,99836.41
2023-08-04T07:38:09.696Z,99843.97
2023-08-04T07:43:13.232Z,99837.69
2023-08-04T07:48:15.025Z,99840.50
2023-08-04T07:53:16.832Z,99843.56
2023-08-04T07:58:18.404Z,99847.41
2023-08-04T08:03:20.118Z,99848.75
2023-08-04T08:08:21.860Z,99853.03
2023-08-04T08:13:30.101Z,99837.25
2023-08-04T08:18:31.629Z,99851.97
2023-08-04T08:23:33.594Z,99854.53
2023-08-04T08:28:35.309Z,99850.88
2023-08-04T08:33:36.982Z,99858.69
2023-08-04T08:38:38.579Z,99857.13
2023-08-04T08:43:45.128Z,99845.88
2023-08-04T08:48:47.289Z,99843.25
2023-08-04T08:53:49.540Z,99853.69
2023-08-04T08:58:51.391Z,99843.75
2023-08-04T09:03:53.101Z,99845.94
2023-08-04T09:08:55.339Z,99850.59
2023-08-04T09:13:57.649Z,99852.88
2023-08-04T09:19:07.453Z,99848.69
2023-08-04T09:24:14.440Z,99845.75
2023-08-04T09:29:16.253Z,99854.50
2023-08-04T09:34:17.946Z,99856.41
2023-08-04T09:39:19.544Z,99862.31
2023-08-04T09:44:22.238Z,99862.31
2023-08-04T09:49:25.193Z,99862.25
2023-08-04T09:54:26.808Z,99864.31
2023-08-04T09:59:29.304Z,99855.16
2023-08-04T10:04:31.630Z,99852.16
2023-08-04T10:09:35.840Z,99855.00
2023-08-04T10:14:37.683Z,99845.75
2023-08-04T10:19:39.459Z,99860.44
2023-08-04T10:24:44.255Z,99864.19
2023-08-04T10:29:46.565Z,99871.13
2023-08-04T10:34:49.122Z,99893.44
2023-08-04T10:39:56.967Z,99894.88
2023-08-04T10:45:07.358Z,99901.31
2023-08-04T10:50:09.395Z,99904.84
2023-08-04T10:55:13.715Z,99910.16
2023-08-04T11:00:16.078Z,99899.69
2023-08-04T11:05:18.004Z,99903.19
2023-08-04T11:10:19.886Z,99914.53
2023-08-04T11:15:25.269Z,99913.38
2023-08-04T11:20:33.433Z,99916.97
2023-08-04T11:25:35.954Z,99925.63
2023-08-04T11:30:40.380Z,99929.72
2023-08-04T11:35:41.966Z,99926.03
2023-08-04T11:41:01.045Z,99933.50
2023-08-04T11:46:07.858Z,99940.78
2023-08-04T11:51:09.844Z,99948.63
2023-08-04T11:56:24.740Z,99953.09
2023-08-04T12:01:35.885Z,99949.25
2023-08-04T12:06:38.862Z,99959.84
2023-08-04T12:11:49.473Z,99944.66
2023-08-04T12:17:00.418Z,99947.09
2023-08-04T12:22:05.382Z,99947.53
2023-08-04T12:27:07.542Z,99946.59
2023-08-04T12:32:09.208Z,99949.31
2023-08-04T12:37:11.135Z,99953.47
2023-08-04T12:42:12.840Z,99964.78
2023-08-04T12:47:14.634Z,99951.78
2023-08-04T12:52:16.338Z,99954.22
2023-08-04T12:57:18.075Z,99955.06
2023-08-04T13:02:19.799Z,99952.03
2023-08-04T13:07:21.441Z,99949.19
2023-08-04T13:12:23.166Z,99958.84
2023-08-04T13:17:28.309Z,99973.22
2023-08-04T13:22:29.920Z,99987.31
2023-08-04T13:27:31.877Z,99980.22
2023-08-04T13:32:33.548Z,99977.69
2023-08-04T13:37:35.233Z,99975.41
2023-08-04T13:42:36.851Z,99968.41
2023-08-04T13:47:39.174Z,99966.63
2023-08-04T13:52:40.863Z,99972.94
2023-08-04T13:57:42.673Z,99966.72
2023-08-04T14:02:44.589Z,99967.38
2023-08-04T14:08:14.077Z,99961.13
2023-08-04T14:13:15.696Z,99954.28
2023-08-04T14:18:17.499Z,99951.47
2023-08-04T14:23:19.655Z,99944.44
2023-08-04T14:28:22.505Z,99948.09
2023-08-04T14:33:24.141Z,99951.84
2023-08-04T14:38:25.724Z,99951.09
2023-08-04T14:43:27.335Z,99952.19
2023-08-04T14:48:29.131Z,99947.53
2023-08-04T14:53:30.790Z,99946.09
2023-08-04T14:58:32.590Z,99945.25
2023-08-04T15:03:37.971Z,99941.59
2023-08-04T15:08:40.353Z,99945.19
2023-08-04T15:13:45.236Z,99954.19
2023-08-04T15:18:46.900Z,99947.94
2023-08-04T15:23:48.953Z,99954.38
2023-08-04T15:28:53.612Z,99955.28
2023-08-04T15:33:55.564Z,99967.25
2023-08-04T15:38:57.211Z,99972.13
2023-08-04T15:43:58.831Z,99969.28
2023-08-04T15:49:00.438Z,99981.25
2023-08-04T15:54:02.085Z,100007.13
2023-08-04T15:59:03.927Z,100029.78
2023-08-04T16:04:05.631Z,100031.53
2023-08-04T16:09:07.624Z,100028.00
2023-08-04T16:14:09.304Z,100032.44
2023-08-04T16:19:10.858Z,100043.75
2023-08-04T16:24:12.488Z,100030.84
2023-08-04T16:29:14.090Z,100052.53
2023-08-04T16:34:15.710Z,100076.47
2023-08-04T16:39:17.526Z,100077.94
2023-08-04T16:44:19.453Z,100097.63
2023-08-04T16:49:22.925Z,100099.28
2023-08-04T16:54:24.579Z,100107.03
2023-08-04T16:59:26.165Z,100099.00
2023-08-04T17:04:29.163Z,100108.13
2023-08-04T17:09:30.772Z,100110.06
2023-08-04T17:14:32.557Z,100119.19
2023-08-04T17:19:34.163Z,100119.97
2023-08-04T17:24:35.894Z,100122.41
2023-08-04T17:29:37.540Z,100116.53
2023-08-04T17:34:39.256Z,100125.66
2023-08-04T17:39:40.829Z,100133.66
2023-08-04T17:44:42.416Z,100129.84
2023-08-04T17:49:45.777Z,100133.19
2023-08-04T17:54:47.594Z,100141.72
2023-08-04T17:59:55.742Z,100144.50
2023-08-04T18:04:57.436Z,100147.50
2023-08-04T18:09:59.029Z,100160.25
2023-08-04T18:15:00.826Z,100161.31
2023-08-04T18:20:02.393Z,100167.38
2023-08-04T18:25:04.157Z,100175.13
2023-08-04T18:30:07.236Z,100171.75
2023-08-04T18:35:09.525Z,100174.78
2023-08-04T18:40:12.120Z,100173.13
2023-08-04T18:45:14.994Z,100178.38
2023-08-04T18:50:16.585Z,100183.28
2023-08-04T18:55:18.134Z,100198.72
2023-08-04T19:00:22.731Z,100198.69
2023-08-04T19:05:24.453Z,100195.91
2023-08-04T19:10:26.278Z,100199.13
2023-08-04T19:15:27.862Z,100198.81
2023-08-04T19:20:29.445Z,100202.94
2023-08-04T19:25:31.094Z,100204.28
2023-08-04T19:30:32.699Z,100205.34
2023-08-04T19:35:34.319Z,100214.38
2023-08-04T19:40:35.899Z,100218.63
2023-08-04T19:45:37.516Z,100222.16
2023-08-04T19:50:39.207Z,100221.22
2023-08-04T19:55:46.483Z,100227.00
2023-08-04T20:00:50.594Z,100228.06
2023-08-04T20:05:52.933Z,100219.47
2023-08-04T20:10:58.490Z,100235.69
2023-08-04T20:16:07.544Z,100231.00
2023-08-04T20:21:09.871Z,100237.34
2023-08-04T20:26:13.563Z,100244.53
2023-08-04T20:31:18.691Z,100246.22
2023-08-04T20:36:20.314Z,100244.78
2023-08-04T20:41:24.823Z,100243.69
2023-08-04T20:46:26.445Z,100243.69
2023-08-04T20:51:28.289Z,100248.69
2023-08-04T20:56:29.842Z,100252.03
2023-08-04T21:01:31.506Z,100264.72
2023-08-04T21:06:33.240Z,100270.75
2023-08-04T21:11:37.729Z,100289.47
2023-08-04T21:16:40.060Z,100300.50
2023-08-04T21:21:41.645Z,100313.72
2023-08-04T21:26:43.212Z,100323.59
2023-08-04T21:31:48.646Z,100339.31
2023-08-04T21:36:50.530Z,100332.41
2023-08-04T21:41:52.409Z,100339.31
2023-08-04T21:46:54.078Z,100346.22
2023-08-04T21:51:55.729Z,100355.03
2023-08-04T21:56:57.429Z,100342.06
2023-08-04T22:02:01.969Z,100343.44
2023-08-04T22:07:03.669Z,100355.03
2023-08-04T22:12:08.323Z,100344.00
2023-08-04T22:17:09.987Z,100338.50
2023-08-04T22:22:12.977Z,100336.81
2023-08-04T22:27:15.383Z,100340.66
2023-08-04T22:32:17.091Z,100341.16
2023-08-04T22:37:18.692Z,100326.56
2023-08-04T22:42:20.241Z,100322.66
2023-08-04T22:47:21.863Z,100311.88
2023-08-04T22:52:24.305Z,100301.09
2023-08-04T22:57:25.924Z,100290.34
2023-08-04T23:02:27.575Z,100295.25
2023-08-04T23:07:29.319Z,100290.59
2023-08-04T23:12:30.904Z,100285.59
2023-08-04T23:17:32.558Z,100288.34
2023-08-04T23:22:34.272Z,100282.00
2023-08-04T23:27:35.827Z,100286.94
2023-08-04T23:32:37.419Z,100281.44
2023-08-04T23:37:39.010Z,100273.66
2023-08-04T23:42:40.593Z,100284.09
2023-08-04T23:47:42.188Z,100273.38
2023-08-04T23:52:43.820Z,100284.09
2023-08-04T23:57:45.829Z,100287.72
